SWJ weather

Southwest Bay Airport
Malekula Island, Malampa, Vanuatu

Public forecast

Using degrees Celsius for public forecast. Weather courtesy of forecast.io.

Closest aviation weather report (METAR) to Southwest Bay Airport

Closest report is Lamap Airport, 22.0 nm (40.8 km) E. Retrieved 2019/12/08 20:00 UTC (42 minutes ago):

NVSL 082000Z AUTO 10009KT //// // NCD ///// Q1013

Closest aviation forecast (TAF) to Southwest Bay Airport

Closest forecast is Lamap Airport, 22.0 nm (40.8 km) E. Retrieved 2019/12/08 18:42 UTC (2 hours ago):

TAF NVSL 081600Z 0818/0918 13006KT 9999 SCT020 INTER 0818/0824 9000 -SHRA BKN018